Buoy 46563

sailwx.info

Track history (hours):
 
Tides and Currents Weather Stations Pressure Air Temp Water Temp Dewpoint Dewpoint Depression Visibility Wind Speed Wind Dir Waves Ship Positions

Drifting buoy 46563

Last reported at 2014-Sep-01 09:00 UTC. Time now 2014-Sep-01 11:18 UTC.
Position N 25°06' W 125°14'.

Water temperature 23.5 ° C

Date/timePositionNaut miles runAvg speedWind from/ knotsBaromVisibWave heightAir tempDewpointWater temp
2014-Sep-01 09:00N 25°06' W 125°14'0 0.0 23.5
2014-Sep-01 08:00N 25°06' W 125°14'0 0.0 23.5
2014-Sep-01 07:00N 25°06' W 125°14'0 0.4 23.5
2014-Sep-01 06:00N 25°06' W 125°14'3 3.2 23.5
2014-Sep-01 05:00N 25°08' W 125°17'0 0.0 23.5
2014-Sep-01 04:00N 25°08' W 125°17'0 0.1 23.5
2014-Sep-01 01:00N 25°08' W 125°17'2 0.8 23.6
2014-Aug-31 23:00N 25°06' W 125°18'2 0.8 23.6
2014-Aug-31 21:00N 25°05' W 125°19'4 1.2 23.5
2014-Aug-31 18:00N 25°01' W 125°18'5 2.3 23.3
2014-Aug-31 16:00N 24°58' W 125°14'0 0.0 23.2
2014-Aug-31 14:00N 24°58' W 125°14'2 2.2 23.2
2014-Aug-31 13:00N 24°58' W 125°12'3 2.9 23.2
2014-Aug-31 12:00N 24°58' W 125°09'8 4.1 23.2
2014-Aug-31 10:00N 25°05' W 125°03'0 0.0 23.2
2014-Aug-31 09:00N 25°05' W 125°03'0 0.0 23.2
2014-Aug-31 03:00N 25°05' W 125°03'4 2.1 23.3
2014-Aug-31 01:00N 25°08' W 125°06'0 0.0 23.4
2014-Aug-31 00:00N 25°08' W 125°06'1 0.8 23.4
2014-Aug-30 23:00N 25°08' W 125°07'2 1.9 23.3
2014-Aug-30 22:00N 25°08' W 125°09'3 1.4 23.3
2014-Aug-30 20:00N 25°06' W 125°12'0 0.0 23.0
2014-Aug-30 18:00N 25°06' W 125°12'3 3.1 23.3
2014-Aug-30 17:00N 25°03' W 125°12'0 0.0 23.3
2014-Aug-30 16:00N 25°03' W 125°12'2 0.8 23.4
2014-Aug-30 14:00N 25°02' W 125°11'0 0.4 23.7
2014-Aug-30 13:00N 25°01' W 125°10'1 0.6 23.7
2014-Aug-30 12:00N 25°01' W 125°10'6 2.8 23.7
2014-Aug-30 10:00N 25°00' W 125°04'1 0.2 23.9
2014-Aug-30 06:00N 25°01' W 125°03'0 0.2 24.0
2014-Aug-30 05:00N 25°01' W 125°03'2 2.0 24.2
2014-Aug-30 04:00N 25°03' W 125°02'0 0.0 24.4
2014-Aug-30 03:00N 25°03' W 125°02'2 2.2 24.2
2014-Aug-30 02:00N 25°05' W 125°02'2 1.2 23.8
2014-Aug-30 00:00N 25°07' W 125°02'3 0.9 24.8
2014-Aug-29 21:00N 25°10' W 125°03'4 1.3 24.4
2014-Aug-29 18:00N 25°11' W 125°07'2 1.7 22.8
2014-Aug-29 17:00N 25°11' W 125°09'0 0.0 22.6
2014-Aug-29 15:00N 25°11' W 125°09'2 0.9 22.4
2014-Aug-29 13:00N 25°09' W 125°10'6 2.0 22.4
2014-Aug-29 10:00N 25°04' W 125°07'0 0.0 22.4
2014-Aug-29 09:00N 25°04' W 125°07'1 0.2 22.4
2014-Aug-29 06:00N 25°04' W 125°06'1 1.2 22.4
2014-Aug-29 05:00N 25°03' W 125°05'4 1.9 22.4
2014-Aug-29 03:00N 25°05' W 125°01'0 0.0 22.5
2014-Aug-29 01:00N 25°05' W 125°01'1 1.5 22.6
2014-Aug-29 00:00N 25°06' W 125°00'2 0.7 22.7
2014-Aug-28 21:00N 25°08' W 125°00'2 1.2 22.6
2014-Aug-28 19:00N 25°11' W 125°00'2 2.2 22.5
2014-Aug-28 18:00N 25°12' W 125°02'3 0.8 22.4
2014-Aug-28 14:00N 25°12' W 125°06'10 4.9 22.2
2014-Aug-28 12:00N 25°03' W 125°10'0 0.0 22.2
2014-Aug-28 10:00N 25°03' W 125°10'1 0.3 22.2
2014-Aug-28 06:00N 25°02' W 125°10'2 1.5 22.3
2014-Aug-28 05:00N 25°01' W 125°10'3 3.0 22.3
2014-Aug-28 04:00N 24°58' W 125°08'7 1.8 22.3
2014-Aug-28 00:00N 24°55' W 125°01'0 0.0 22.4
2014-Aug-27 23:00N 24°55' W 125°01'0 0.0 22.4
2014-Aug-27 22:00N 24°55' W 125°01'0 0.0 22.5
2014-Aug-27 21:00N 24°55' W 125°01'0 0.0 22.5
2014-Aug-27 20:00N 24°55' W 125°01'0 0.2 22.6
2014-Aug-27 18:00N 24°55' W 125°01'0 0.0 22.8
2014-Aug-27 17:00N 24°55' W 125°01'2 0.7 22.8
2014-Aug-27 14:00N 24°54' W 124°58'1 0.9 22.8
2014-Aug-27 13:00N 24°54' W 124°57'1 0.3 22.8
2014-Aug-27 10:00N 24°53' W 124°57'0 0.0 22.7
2014-Aug-27 09:00N 24°53' W 124°57'0 0.0 22.7
2014-Aug-27 06:00N 24°53' W 124°57'0 0.1 22.7
2014-Aug-27 05:00N 24°53' W 124°57'0 0.0 22.8
2014-Aug-27 04:00N 24°53' W 124°57'1 1.0 22.7
2014-Aug-27 03:00N 24°53' W 124°56'0 0.1 22.8
2014-Aug-27 00:00N 24°53' W 124°56'1 0.7 23.0
2014-Aug-26 23:00N 24°54' W 124°55'0 0.1 23.0
2014-Aug-26 22:00N 24°54' W 124°55'0 0.1 23.0
2014-Aug-26 21:00N 24°54' W 124°55'0 0.1 23.0
2014-Aug-26 18:00N 24°54' W 124°55'1 0.8 22.9
2014-Aug-26 17:00N 24°53' W 124°55'0 0.0 22.9
2014-Aug-26 16:00N 24°53' W 124°55'0 0.0 22.9
2014-Aug-26 15:00N 24°53' W 124°55'0 0.1 22.9
2014-Aug-26 13:00N 24°53' W 124°55'0 0.4 22.9
2014-Aug-26 12:00N 24°53' W 124°55'0 0.3 23.1
2014-Aug-26 11:00N 24°52' W 124°55'0 0.1 23.2
2014-Aug-26 10:00N 24°52' W 124°55'0 0.0 23.2
2014-Aug-26 09:00N 24°52' W 124°55'1 1.1 23.2
2014-Aug-26 08:00N 24°52' W 124°54'1 0.1 23.2
2014-Aug-26 04:00N 24°52' W 124°54'0 0.0 23.3
2014-Aug-26 02:00N 24°52' W 124°54'1 0.5 23.5
2014-Aug-26 01:00N 24°53' W 124°54'1 0.7 23.6
2014-Aug-25 23:00N 24°52' W 124°55'1 1.1 23.6
2014-Aug-25 22:00N 24°52' W 124°56'1 0.2 23.5
2014-Aug-25 18:00N 24°51' W 124°57'0 0.0 23.2
2014-Aug-25 17:00N 24°51' W 124°57'0 0.0 23.1
2014-Aug-25 16:00N 24°51' W 124°57'1 1.1 23.1
2014-Aug-25 15:00N 24°50' W 124°57'0 0.0 23.0
2014-Aug-25 14:00N 24°50' W 124°57'1 0.5 23.0
2014-Aug-25 13:00N 24°50' W 124°57'0 0.0 23.0
2014-Aug-25 12:00N 24°50' W 124°57'1 0.4 23.0
2014-Aug-25 09:00N 24°49' W 124°59'0 0.0 23.1
2014-Aug-25 06:00N 24°49' W 124°59'0 0.5 23.1
2014-Aug-25 05:00N 24°49' W 124°59'0 0.4 23.1
2014-Aug-25 04:00N 24°49' W 124°59'0 0.0 23.1
2014-Aug-25 03:00N 24°49' W 124°59'3 0.7 23.2
2014-Aug-24 23:00N 24°48' W 125°02'2 1.6 23.2
2014-Aug-24 22:00N 24°48' W 125°04'1 0.4 23.2
2014-Aug-24 19:00N 24°47' W 125°05'1 0.8 23.0
2014-Aug-24 18:00N 24°47' W 125°06'0 0.5 22.9
2014-Aug-24 17:00N 24°46' W 125°06'4 0.9 22.9
2014-Aug-24 13:00N 24°43' W 125°09'1 0.5 22.9
2014-Aug-24 12:00N 24°44' W 125°08'3 2.5 22.9
2014-Aug-24 11:00N 24°41' W 125°09'1 0.1 22.9
2014-Aug-24 06:00N 24°41' W 125°09'0 0.2 23.0
2014-Aug-24 04:00N 24°40' W 125°09'0 0.0 23.1
2014-Aug-24 03:00N 24°40' W 125°09'0 0.4 23.1
2014-Aug-24 02:00N 24°40' W 125°10'1 0.6 23.1
2014-Aug-24 01:00N 24°41' W 125°09'2 1.7 23.1
2014-Aug-24 00:00N 24°40' W 125°11'0 0.2 23.2
2014-Aug-23 23:00N 24°40' W 125°11'4 2.0 23.2
2014-Aug-23 21:00N 24°38' W 125°15'1 0.2 23.2
2014-Aug-23 18:00N 24°38' W 125°15'1 1.0 23.2
2014-Aug-23 17:00N 24°38' W 125°16'3 2.6 23.2
2014-Aug-23 16:00N 24°35' W 125°17'5 1.3 23.2
2014-Aug-23 12:00N 24°30' W 125°19'7 1.2 23.3
2014-Aug-23 06:00N 24°24' W 125°15'1 1.1 23.5
2014-Aug-23 05:00N 24°23' W 125°14'2 0.8 23.5
2014-Aug-23 02:00N 24°22' W 125°12'1 1.0 23.6
2014-Aug-23 01:00N 24°22' W 125°11'2 0.9 23.6
2014-Aug-22 23:00N 24°21' W 125°09'1 0.6 23.6
2014-Aug-22 21:00N 24°20' W 125°08'4 0.6 23.7
2014-Aug-22 14:00N 24°21' W 125°04'0 0.0 23.7
2014-Aug-22 13:00N 24°21' W 125°04'1 0.8 23.7
2014-Aug-22 12:00N 24°21' W 125°05'1 0.7 23.7
2014-Aug-22 11:00N 24°21' W 125°04'1 1.2 23.7
2014-Aug-22 10:00N 24°21' W 125°05'0 0.0 23.7
2014-Aug-22 09:00N 24°21' W 125°05'   23.7
Track history (hours):
 
Tides and Currents Weather Stations Pressure Air Temp Water Temp Dewpoint Dewpoint Depression Visibility Wind Speed Wind Dir Waves Ship Positions

Drifting buoy 46563

Last reported at 2014-Sep-01 09:00 UTC. Time now 2014-Sep-01 11:18 UTC.
Position N 25°06' W 125°14'.

Water temperature 23.5 ° C

Date/timePositionNaut miles runAvg speedWind from/ knotsBaromVisibWave heightAir tempDewpointWater temp
2014-Sep-01 09:00N 25°06' W 125°14'0 0.0 23.5
2014-Sep-01 08:00N 25°06' W 125°14'0 0.0 23.5
2014-Sep-01 07:00N 25°06' W 125°14'0 0.4 23.5
2014-Sep-01 06:00N 25°06' W 125°14'3 3.2 23.5
2014-Sep-01 05:00N 25°08' W 125°17'0 0.0 23.5
2014-Sep-01 04:00N 25°08' W 125°17'0 0.1 23.5
2014-Sep-01 01:00N 25°08' W 125°17'2 0.8 23.6
2014-Aug-31 23:00N 25°06' W 125°18'2 0.8 23.6
2014-Aug-31 21:00N 25°05' W 125°19'4 1.2 23.5
2014-Aug-31 18:00N 25°01' W 125°18'5 2.3 23.3
2014-Aug-31 16:00N 24°58' W 125°14'0 0.0 23.2
2014-Aug-31 14:00N 24°58' W 125°14'2 2.2 23.2
2014-Aug-31 13:00N 24°58' W 125°12'3 2.9 23.2
2014-Aug-31 12:00N 24°58' W 125°09'8 4.1 23.2
2014-Aug-31 10:00N 25°05' W 125°03'0 0.0 23.2
2014-Aug-31 09:00N 25°05' W 125°03'0 0.0 23.2
2014-Aug-31 03:00N 25°05' W 125°03'4 2.1 23.3
2014-Aug-31 01:00N 25°08' W 125°06'0 0.0 23.4
2014-Aug-31 00:00N 25°08' W 125°06'1 0.8 23.4
2014-Aug-30 23:00N 25°08' W 125°07'2 1.9 23.3
2014-Aug-30 22:00N 25°08' W 125°09'3 1.4 23.3
2014-Aug-30 20:00N 25°06' W 125°12'0 0.0 23.0
2014-Aug-30 18:00N 25°06' W 125°12'3 3.1 23.3
2014-Aug-30 17:00N 25°03' W 125°12'0 0.0 23.3
2014-Aug-30 16:00N 25°03' W 125°12'2 0.8 23.4
2014-Aug-30 14:00N 25°02' W 125°11'0 0.4 23.7
2014-Aug-30 13:00N 25°01' W 125°10'1 0.6 23.7
2014-Aug-30 12:00N 25°01' W 125°10'6 2.8 23.7
2014-Aug-30 10:00N 25°00' W 125°04'1 0.2 23.9
2014-Aug-30 06:00N 25°01' W 125°03'0 0.2 24.0
2014-Aug-30 05:00N 25°01' W 125°03'2 2.0 24.2
2014-Aug-30 04:00N 25°03' W 125°02'0 0.0 24.4
2014-Aug-30 03:00N 25°03' W 125°02'2 2.2 24.2
2014-Aug-30 02:00N 25°05' W 125°02'2 1.2 23.8
2014-Aug-30 00:00N 25°07' W 125°02'3 0.9 24.8
2014-Aug-29 21:00N 25°10' W 125°03'4 1.3 24.4
2014-Aug-29 18:00N 25°11' W 125°07'2 1.7 22.8
2014-Aug-29 17:00N 25°11' W 125°09'0 0.0 22.6
2014-Aug-29 15:00N 25°11' W 125°09'2 0.9 22.4
2014-Aug-29 13:00N 25°09' W 125°10'6 2.0 22.4
2014-Aug-29 10:00N 25°04' W 125°07'0 0.0 22.4
2014-Aug-29 09:00N 25°04' W 125°07'1 0.2 22.4
2014-Aug-29 06:00N 25°04' W 125°06'1 1.2 22.4
2014-Aug-29 05:00N 25°03' W 125°05'4 1.9 22.4
2014-Aug-29 03:00N 25°05' W 125°01'0 0.0 22.5
2014-Aug-29 01:00N 25°05' W 125°01'1 1.5 22.6
2014-Aug-29 00:00N 25°06' W 125°00'2 0.7 22.7
2014-Aug-28 21:00N 25°08' W 125°00'2 1.2 22.6
2014-Aug-28 19:00N 25°11' W 125°00'2 2.2 22.5
2014-Aug-28 18:00N 25°12' W 125°02'3 0.8 22.4
2014-Aug-28 14:00N 25°12' W 125°06'10 4.9 22.2
2014-Aug-28 12:00N 25°03' W 125°10'0 0.0 22.2
2014-Aug-28 10:00N 25°03' W 125°10'1 0.3 22.2
2014-Aug-28 06:00N 25°02' W 125°10'2 1.5 22.3
2014-Aug-28 05:00N 25°01' W 125°10'3 3.0 22.3
2014-Aug-28 04:00N 24°58' W 125°08'7 1.8 22.3
2014-Aug-28 00:00N 24°55' W 125°01'0 0.0 22.4
2014-Aug-27 23:00N 24°55' W 125°01'0 0.0 22.4
2014-Aug-27 22:00N 24°55' W 125°01'0 0.0 22.5
2014-Aug-27 21:00N 24°55' W 125°01'0 0.0 22.5
2014-Aug-27 20:00N 24°55' W 125°01'0 0.2 22.6
2014-Aug-27 18:00N 24°55' W 125°01'0 0.0 22.8
2014-Aug-27 17:00N 24°55' W 125°01'2 0.7 22.8
2014-Aug-27 14:00N 24°54' W 124°58'1 0.9 22.8
2014-Aug-27 13:00N 24°54' W 124°57'1 0.3 22.8
2014-Aug-27 10:00N 24°53' W 124°57'0 0.0 22.7
2014-Aug-27 09:00N 24°53' W 124°57'0 0.0 22.7
2014-Aug-27 06:00N 24°53' W 124°57'0 0.1 22.7
2014-Aug-27 05:00N 24°53' W 124°57'0 0.0 22.8
2014-Aug-27 04:00N 24°53' W 124°57'1 1.0 22.7
2014-Aug-27 03:00N 24°53' W 124°56'0 0.1 22.8
2014-Aug-27 00:00N 24°53' W 124°56'1 0.7 23.0
2014-Aug-26 23:00N 24°54' W 124°55'0 0.1 23.0
2014-Aug-26 22:00N 24°54' W 124°55'0 0.1 23.0
2014-Aug-26 21:00N 24°54' W 124°55'0 0.1 23.0
2014-Aug-26 18:00N 24°54' W 124°55'1 0.8 22.9
2014-Aug-26 17:00N 24°53' W 124°55'0 0.0 22.9
2014-Aug-26 16:00N 24°53' W 124°55'0 0.0 22.9
2014-Aug-26 15:00N 24°53' W 124°55'0 0.1 22.9
2014-Aug-26 13:00N 24°53' W 124°55'0 0.4 22.9
2014-Aug-26 12:00N 24°53' W 124°55'0 0.3 23.1
2014-Aug-26 11:00N 24°52' W 124°55'0 0.1 23.2
2014-Aug-26 10:00N 24°52' W 124°55'0 0.0 23.2
2014-Aug-26 09:00N 24°52' W 124°55'1 1.1 23.2
2014-Aug-26 08:00N 24°52' W 124°54'1 0.1 23.2
2014-Aug-26 04:00N 24°52' W 124°54'0 0.0 23.3
2014-Aug-26 02:00N 24°52' W 124°54'1 0.5 23.5
2014-Aug-26 01:00N 24°53' W 124°54'1 0.7 23.6
2014-Aug-25 23:00N 24°52' W 124°55'1 1.1 23.6
2014-Aug-25 22:00N 24°52' W 124°56'1 0.2 23.5
2014-Aug-25 18:00N 24°51' W 124°57'0 0.0 23.2
2014-Aug-25 17:00N 24°51' W 124°57'0 0.0 23.1
2014-Aug-25 16:00N 24°51' W 124°57'1 1.1 23.1
2014-Aug-25 15:00N 24°50' W 124°57'0 0.0 23.0
2014-Aug-25 14:00N 24°50' W 124°57'1 0.5 23.0
2014-Aug-25 13:00N 24°50' W 124°57'0 0.0 23.0
2014-Aug-25 12:00N 24°50' W 124°57'1 0.4 23.0
2014-Aug-25 09:00N 24°49' W 124°59'0 0.0 23.1
2014-Aug-25 06:00N 24°49' W 124°59'0 0.5 23.1
2014-Aug-25 05:00N 24°49' W 124°59'0 0.4 23.1
2014-Aug-25 04:00N 24°49' W 124°59'0 0.0 23.1
2014-Aug-25 03:00N 24°49' W 124°59'3 0.7 23.2
2014-Aug-24 23:00N 24°48' W 125°02'2 1.6 23.2
2014-Aug-24 22:00N 24°48' W 125°04'1 0.4 23.2
2014-Aug-24 19:00N 24°47' W 125°05'1 0.8 23.0
2014-Aug-24 18:00N 24°47' W 125°06'0 0.5 22.9
2014-Aug-24 17:00N 24°46' W 125°06'4 0.9 22.9
2014-Aug-24 13:00N 24°43' W 125°09'1 0.5 22.9
2014-Aug-24 12:00N 24°44' W 125°08'3 2.5 22.9
2014-Aug-24 11:00N 24°41' W 125°09'1 0.1 22.9
2014-Aug-24 06:00N 24°41' W 125°09'0 0.2 23.0
2014-Aug-24 04:00N 24°40' W 125°09'0 0.0 23.1
2014-Aug-24 03:00N 24°40' W 125°09'0 0.4 23.1
2014-Aug-24 02:00N 24°40' W 125°10'1 0.6 23.1
2014-Aug-24 01:00N 24°41' W 125°09'2 1.7 23.1
2014-Aug-24 00:00N 24°40' W 125°11'0 0.2 23.2
2014-Aug-23 23:00N 24°40' W 125°11'4 2.0 23.2
2014-Aug-23 21:00N 24°38' W 125°15'1 0.2 23.2
2014-Aug-23 18:00N 24°38' W 125°15'1 1.0 23.2
2014-Aug-23 17:00N 24°38' W 125°16'3 2.6 23.2
2014-Aug-23 16:00N 24°35' W 125°17'5 1.3 23.2
2014-Aug-23 12:00N 24°30' W 125°19'7 1.2 23.3
2014-Aug-23 06:00N 24°24' W 125°15'1 1.1 23.5
2014-Aug-23 05:00N 24°23' W 125°14'2 0.8 23.5
2014-Aug-23 02:00N 24°22' W 125°12'1 1.0 23.6
2014-Aug-23 01:00N 24°22' W 125°11'2 0.9 23.6
2014-Aug-22 23:00N 24°21' W 125°09'1 0.6 23.6
2014-Aug-22 21:00N 24°20' W 125°08'4 0.6 23.7
2014-Aug-22 14:00N 24°21' W 125°04'0 0.0 23.7
2014-Aug-22 13:00N 24°21' W 125°04'1 0.8 23.7
2014-Aug-22 12:00N 24°21' W 125°05'1 0.7 23.7
2014-Aug-22 11:00N 24°21' W 125°04'1 1.2 23.7
2014-Aug-22 10:00N 24°21' W 125°05'0 0.0 23.7
2014-Aug-22 09:00N 24°21' W 125°05'   23.7

Dump ship's entire track history